createdAt,value
2018-05-13T00:02:12.109Z,9.00
2018-05-13T00:04:39.682Z,9.60
2018-05-13T00:07:07.294Z,8.80
2018-05-13T00:09:34.937Z,10.60
2018-05-13T00:12:02.539Z,9.23
2018-05-13T00:14:30.110Z,10.87
2018-05-13T00:16:57.715Z,9.10
2018-05-13T00:19:25.273Z,8.80
2018-05-13T00:21:52.893Z,9.60
2018-05-13T00:24:20.442Z,9.77
2018-05-13T00:26:48.075Z,10.70
2018-05-13T00:29:15.721Z,9.70
2018-05-13T00:31:43.361Z,12.10
2018-05-13T00:34:10.968Z,10.00
2018-05-13T00:36:39.300Z,10.27
2018-05-13T00:39:06.878Z,10.27
2018-05-13T00:41:34.442Z,11.07
2018-05-13T00:44:02.058Z,10.83
2018-05-13T00:46:29.610Z,11.00
2018-05-13T00:48:57.255Z,12.07
2018-05-13T00:51:25.620Z,11.20
2018-05-13T00:53:54.046Z,11.63
2018-05-13T00:56:21.646Z,13.07
2018-05-13T00:58:49.286Z,13.67
2018-05-13T01:01:16.855Z,13.47
2018-05-13T01:03:44.479Z,12.50
2018-05-13T01:06:12.033Z,11.27
2018-05-13T01:08:39.619Z,11.60
2018-05-13T01:11:07.191Z,12.90
2018-05-13T01:13:34.767Z,12.27
2018-05-13T01:16:02.406Z,11.63
2018-05-13T01:18:30.091Z,11.13
2018-05-13T01:20:57.684Z,11.80
2018-05-13T01:23:25.258Z,13.43
2018-05-13T01:25:52.865Z,11.13
2018-05-13T01:28:20.470Z,11.40
2018-05-13T01:30:52.634Z,11.00
2018-05-13T01:33:20.210Z,11.17
2018-05-13T01:35:47.846Z,13.07
2018-05-13T01:38:16.232Z,11.27
2018-05-13T01:40:43.794Z,11.07
2018-05-13T01:43:12.059Z,11.87
2018-05-13T01:45:40.348Z,13.10
2018-05-13T01:48:07.885Z,11.70
2018-05-13T01:50:36.191Z,9.00
2018-05-13T01:53:03.790Z,9.20
2018-05-13T01:55:31.326Z,9.23
2018-05-13T01:57:58.903Z,11.30
2018-05-13T02:00:26.395Z,10.90
2018-05-13T02:02:53.895Z,7.50
2018-05-13T02:05:21.455Z,8.33
2018-05-13T02:07:49.006Z,8.37
2018-05-13T02:10:16.579Z,7.90
2018-05-13T02:12:44.089Z,7.77
2018-05-13T02:15:11.681Z,7.27
2018-05-13T02:17:39.173Z,7.77
2018-05-13T02:20:06.701Z,8.03
2018-05-13T02:22:34.201Z,8.00
2018-05-13T02:25:01.724Z,7.97
2018-05-13T02:27:29.228Z,7.23
2018-05-13T02:29:56.754Z,7.67
2018-05-13T02:32:24.322Z,7.10
2018-05-13T02:34:51.833Z,7.63
2018-05-13T02:37:20.197Z,7.37
2018-05-13T02:39:48.518Z,9.20
2018-05-13T02:42:16.644Z,7.53
2018-05-13T02:44:44.921Z,7.37
2018-05-13T02:47:12.464Z,7.67
2018-05-13T02:49:40.645Z,7.90
2018-05-13T02:52:08.223Z,7.97
2018-05-13T02:54:36.540Z,8.17
2018-05-13T02:57:04.075Z,8.83
2018-05-13T02:59:31.618Z,9.83
2018-05-13T03:01:59.182Z,8.30
2018-05-13T03:04:27.509Z,9.10
2018-05-13T03:06:55.041Z,9.13
2018-05-13T03:09:22.607Z,9.80
2018-05-13T03:11:50.142Z,8.70
2018-05-13T03:14:17.679Z,8.17
2018-05-13T03:16:45.233Z,8.80
2018-05-13T03:19:12.746Z,8.70
2018-05-13T03:21:41.056Z,11.13
2018-05-13T03:24:08.567Z,8.10
2018-05-13T03:26:36.085Z,9.07
2018-05-13T03:29:03.591Z,11.73
2018-05-13T03:31:31.130Z,7.83
2018-05-13T03:33:59.475Z,8.70
2018-05-13T03:36:27.022Z,8.50
2018-05-13T03:38:54.547Z,8.77
2018-05-13T03:41:22.088Z,9.77
2018-05-13T03:43:49.638Z,8.83
2018-05-13T03:46:17.920Z,8.37
2018-05-13T03:48:46.206Z,7.67
2018-05-13T03:51:13.724Z,10.20
2018-05-13T03:53:41.296Z,9.53
2018-05-13T03:56:09.560Z,8.90
2018-05-13T03:58:37.098Z,9.97
2018-05-13T04:01:04.601Z,7.03
2018-05-13T04:03:32.893Z,7.57
2018-05-13T04:06:00.422Z,7.47
2018-05-13T04:08:49.293Z,7.50
2018-05-13T04:11:29.251Z,7.43
2018-05-13T04:14:09.532Z,7.47
2018-05-13T04:16:37.049Z,10.77
2018-05-13T04:19:04.577Z,8.23
2018-05-13T04:21:32.140Z,7.63
2018-05-13T04:23:59.657Z,8.70
2018-05-13T04:26:27.198Z,9.47
2018-05-13T04:28:54.794Z,9.40
2018-05-13T04:31:22.372Z,7.10
2018-05-13T04:33:49.893Z,7.33
2018-05-13T04:36:17.425Z,9.23
2018-05-13T04:38:45.769Z,9.10
2018-05-13T04:41:13.273Z,9.47
2018-05-13T04:43:40.805Z,8.83
2018-05-13T04:46:08.321Z,8.93
2018-05-13T04:48:35.924Z,10.00
2018-05-13T04:51:03.431Z,9.20
2018-05-13T04:53:30.959Z,8.30
2018-05-13T04:55:58.479Z,10.07
2018-05-13T04:58:26.023Z,9.90
2018-05-13T05:00:53.546Z,8.03
2018-05-13T05:03:21.064Z,8.87
2018-05-13T05:05:48.605Z,9.10
2018-05-13T05:08:16.109Z,11.73
2018-05-13T05:10:43.656Z,8.10
2018-05-13T05:13:11.944Z,10.40
2018-05-13T05:15:39.467Z,7.73
2018-05-13T05:18:08.605Z,8.30
2018-05-13T05:20:56.809Z,7.77
2018-05-13T05:26:30.502Z,8.27
2018-05-13T05:28:58.025Z,9.67
2018-05-13T05:31:26.297Z,8.90
2018-05-13T05:33:54.548Z,7.00
2018-05-13T05:36:22.072Z,7.60
2018-05-13T05:38:49.552Z,7.53
2018-05-13T05:41:17.126Z,7.07
2018-05-13T05:43:44.647Z,7.90
2018-05-13T05:46:24.844Z,7.60
2018-05-13T05:48:52.418Z,7.50
2018-05-13T05:51:20.697Z,7.47
2018-05-13T05:56:52.135Z,6.80
2018-05-13T05:59:31.930Z,7.57
2018-05-13T06:01:59.461Z,7.20
2018-05-13T06:04:26.977Z,8.80
2018-05-13T06:06:54.513Z,6.83
2018-05-13T06:09:22.028Z,6.57
2018-05-13T06:11:49.549Z,7.77
2018-05-13T06:14:17.056Z,6.93
2018-05-13T06:16:44.556Z,7.20
2018-05-13T06:19:35.652Z,6.77
2018-05-13T06:22:03.185Z,8.87
2018-05-13T06:24:30.761Z,7.10
2018-05-13T06:26:59.029Z,6.30
2018-05-13T06:29:27.345Z,5.97
2018-05-13T06:31:54.936Z,6.40
2018-05-13T06:34:23.128Z,8.70
2018-05-13T06:36:51.420Z,5.93
2018-05-13T06:39:18.931Z,8.20
2018-05-13T06:41:46.433Z,6.17
2018-05-13T06:44:14.738Z,7.90
2018-05-13T06:46:42.285Z,6.07
2018-05-13T06:49:09.809Z,6.10
2018-05-13T06:51:37.371Z,9.10
2018-05-13T06:54:04.893Z,6.53
2018-05-13T06:56:32.431Z,8.70
2018-05-13T06:58:59.965Z,7.00
2018-05-13T07:01:28.245Z,7.77
2018-05-13T07:03:55.773Z,6.10
2018-05-13T07:06:23.313Z,6.10
2018-05-13T07:08:50.822Z,6.40
2018-05-13T07:11:19.118Z,7.30
2018-05-13T07:13:46.640Z,7.27
2018-05-13T07:16:14.160Z,7.33
2018-05-13T07:18:41.682Z,7.53
2018-05-13T07:21:09.238Z,7.53
2018-05-13T07:23:36.774Z,6.63
2018-05-13T07:26:22.207Z,6.20
2018-05-13T07:28:49.744Z,6.70
2018-05-13T07:40:19.238Z,7.63
2018-05-13T07:42:52.698Z,7.83
2018-05-13T07:45:20.227Z,6.47
2018-05-13T07:47:47.776Z,8.33
2018-05-13T07:50:15.304Z,6.53
2018-05-13T07:52:42.824Z,7.53
2018-05-13T07:55:11.119Z,7.13
2018-05-13T07:57:38.634Z,6.20
2018-05-13T08:00:06.142Z,7.53
2018-05-13T08:02:33.662Z,6.57
2018-05-13T08:05:14.034Z,6.10
2018-05-13T08:07:42.321Z,6.33
2018-05-13T08:10:09.849Z,6.17
2018-05-13T08:12:37.377Z,5.90
2018-05-13T08:15:04.979Z,6.30
2018-05-13T08:17:33.274Z,6.97
2018-05-13T08:20:00.762Z,6.10
2018-05-13T08:22:29.287Z,7.97
2018-05-13T08:24:56.790Z,8.80
2018-05-13T08:27:24.321Z,7.93
2018-05-13T08:29:52.707Z,6.53
2018-05-13T08:32:20.214Z,8.47
2018-05-13T08:34:47.748Z,6.20
2018-05-13T08:37:15.251Z,6.90
2018-05-13T08:39:42.773Z,7.37
2018-05-13T08:42:10.322Z,8.23
2018-05-13T08:44:37.831Z,6.93
2018-05-13T08:47:05.407Z,7.27
2018-05-13T08:49:33.696Z,8.20
2018-05-13T08:52:02.005Z,7.43
2018-05-13T08:54:29.571Z,7.37
2018-05-13T08:56:57.050Z,7.63
2018-05-13T08:59:24.584Z,7.97
2018-05-13T09:01:52.101Z,6.90
2018-05-13T09:04:20.371Z,7.87
2018-05-13T09:06:48.616Z,7.50
2018-05-13T09:09:16.173Z,7.17
2018-05-13T09:11:43.718Z,9.10
2018-05-13T09:14:11.385Z,8.23
2018-05-13T09:16:38.884Z,7.37
2018-05-13T09:19:07.133Z,8.20
2018-05-13T09:21:34.643Z,9.77
2018-05-13T09:24:02.164Z,6.90
2018-05-13T09:26:29.766Z,13.00
2018-05-13T09:28:57.219Z,8.30
2018-05-13T09:31:24.752Z,8.00
2018-05-13T09:33:53.191Z,9.00
2018-05-13T09:36:20.719Z,8.20
2018-05-13T09:38:48.251Z,8.13
2018-05-13T09:41:16.600Z,10.73
2018-05-13T09:43:44.134Z,10.13
2018-05-13T09:46:11.674Z,9.60
2018-05-13T09:48:39.221Z,10.33
2018-05-13T09:51:06.733Z,9.37
2018-05-13T09:53:34.297Z,15.37
2018-05-13T09:56:01.874Z,13.70
2018-05-13T09:58:30.232Z,8.70
2018-05-13T10:03:51.379Z,8.40
2018-05-13T10:06:18.877Z,9.10
2018-05-13T10:08:46.471Z,8.50
2018-05-13T10:11:13.970Z,7.50
2018-05-13T10:13:42.290Z,10.10
2018-05-13T10:16:09.824Z,8.80
2018-05-13T10:18:37.352Z,7.57
2018-05-13T10:21:04.892Z,10.67
2018-05-13T10:23:32.465Z,48.57
2018-05-13T10:26:00.775Z,9.63
2018-05-13T10:28:28.286Z,8.83
2018-05-13T10:30:55.797Z,9.47
2018-05-13T10:33:23.293Z,11.07
2018-05-13T10:35:50.832Z,9.73
2018-05-13T10:38:18.357Z,9.80
2018-05-13T10:40:46.647Z,9.97
2018-05-13T10:43:14.172Z,9.73
2018-05-13T10:45:42.449Z,11.03
2018-05-13T10:48:10.746Z,10.07
2018-05-13T10:50:41.237Z,9.80
2018-05-13T10:53:08.741Z,9.00
2018-05-13T10:55:36.250Z,8.90
2018-05-13T10:58:03.775Z,7.90
2018-05-13T11:00:31.297Z,7.00
2018-05-13T11:02:59.590Z,6.30
2018-05-13T11:05:46.728Z,7.40
2018-05-13T11:08:14.242Z,7.10
2018-05-13T11:10:41.806Z,8.37
2018-05-13T11:13:09.377Z,9.67
2018-05-13T11:15:36.932Z,7.80
2018-05-13T11:18:05.214Z,8.67
2018-05-13T11:20:32.789Z,9.50
2018-05-13T11:23:00.330Z,9.13
2018-05-13T11:25:27.869Z,10.50
2018-05-13T11:27:56.162Z,9.83
2018-05-13T11:30:48.387Z,10.80
2018-05-13T11:33:16.686Z,10.93
2018-05-13T11:35:44.272Z,12.20
2018-05-13T11:38:18.333Z,11.07
2018-05-13T11:40:46.668Z,11.47
2018-05-13T11:43:14.169Z,11.20
2018-05-13T11:45:42.450Z,11.97
2018-05-13T11:48:10.729Z,11.10
2018-05-13T11:50:44.661Z,10.97
2018-05-13T11:53:12.165Z,11.60
2018-05-13T11:55:39.650Z,11.20
2018-05-13T11:58:07.925Z,10.50
2018-05-13T12:00:36.258Z,11.67
2018-05-13T12:03:03.792Z,11.37
2018-05-13T12:05:31.308Z,11.80
2018-05-13T12:07:58.842Z,12.17
2018-05-13T12:13:20.329Z,12.00
2018-05-13T12:18:49.023Z,13.43
2018-05-13T12:21:16.554Z,12.07
2018-05-13T12:23:44.071Z,13.20
2018-05-13T12:26:11.556Z,13.57
2018-05-13T12:28:44.498Z,14.23
2018-05-13T12:31:11.992Z,14.10
2018-05-13T12:33:39.529Z,14.07
2018-05-13T12:36:07.095Z,14.43
2018-05-13T12:38:34.612Z,14.13
2018-05-13T12:41:02.942Z,15.33
2018-05-13T12:43:30.425Z,14.20
2018-05-13T12:45:57.962Z,14.53
2018-05-13T12:48:43.282Z,14.17
2018-05-13T12:51:11.642Z,16.20
2018-05-13T12:53:39.217Z,15.43
2018-05-13T12:56:07.549Z,17.20
2018-05-13T12:58:35.052Z,16.57
2018-05-13T13:01:05.684Z,18.63
2018-05-13T13:03:40.456Z,15.30
2018-05-13T13:06:07.988Z,16.37
2018-05-13T13:08:35.525Z,19.40
2018-05-13T13:11:03.106Z,17.20
2018-05-13T13:13:44.371Z,16.70
2018-05-13T13:16:12.653Z,18.77
2018-05-13T13:18:40.219Z,18.43
2018-05-13T13:21:07.739Z,18.10
2018-05-13T13:23:35.342Z,17.10
2018-05-13T13:26:02.962Z,18.73
2018-05-13T13:28:30.470Z,17.90
2018-05-13T13:30:57.994Z,18.37
2018-05-13T13:33:26.305Z,17.33
2018-05-13T13:35:53.939Z,18.87
2018-05-13T13:38:23.027Z,16.63
2018-05-13T13:41:07.736Z,16.67
2018-05-13T13:43:35.327Z,17.90
2018-05-13T13:46:02.851Z,16.00
2018-05-13T13:48:30.388Z,17.40
2018-05-13T13:51:14.894Z,20.87
2018-05-13T13:53:42.464Z,17.17
2018-05-13T13:56:10.004Z,17.70
2018-05-13T13:58:37.516Z,17.03
2018-05-13T14:01:05.769Z,18.83
2018-05-13T14:03:33.272Z,16.40
2018-05-13T14:06:00.770Z,18.47
2018-05-13T14:08:28.266Z,18.50
2018-05-13T14:10:56.544Z,19.03
2018-05-13T14:13:24.822Z,20.47
2018-05-13T14:15:53.137Z,22.57
2018-05-13T14:18:20.692Z,22.47
2018-05-13T14:20:48.239Z,19.13
2018-05-13T14:23:15.771Z,18.80
2018-05-13T14:25:44.106Z,19.70
2018-05-13T14:28:28.549Z,19.50
2018-05-13T14:30:56.170Z,18.37
2018-05-13T14:33:24.741Z,19.00
2018-05-13T14:35:53.557Z,18.40
2018-05-13T14:38:41.723Z,18.67
2018-05-13T14:41:09.375Z,19.20
2018-05-13T14:43:36.808Z,18.40
2018-05-13T14:46:04.344Z,17.03
2018-05-13T14:48:32.664Z,16.87
2018-05-13T14:51:00.159Z,16.10
2018-05-13T14:53:27.670Z,16.43
2018-05-13T14:55:55.170Z,16.50
2018-05-13T14:58:22.748Z,17.07
2018-05-13T15:01:01.149Z,18.80
2018-05-13T15:03:32.129Z,18.70
2018-05-13T15:05:59.672Z,18.73
2018-05-13T15:08:33.692Z,18.80
2018-05-13T15:11:16.497Z,19.07
2018-05-13T15:13:48.908Z,21.50
2018-05-13T15:16:16.433Z,18.47
2018-05-13T15:18:44.695Z,19.20
2018-05-13T15:21:12.239Z,17.10
2018-05-13T15:23:39.767Z,17.30
2018-05-13T15:26:07.307Z,17.67
2018-05-13T15:28:34.838Z,15.97
2018-05-13T15:31:03.134Z,16.57
2018-05-13T15:33:30.705Z,18.37
2018-05-13T15:35:58.206Z,18.00
2018-05-13T15:38:25.726Z,18.90
2018-05-13T15:40:53.246Z,18.10
2018-05-13T15:43:21.535Z,16.53
2018-05-13T15:45:49.085Z,16.80
2018-05-13T15:48:17.416Z,16.10
2018-05-13T15:50:44.982Z,16.17
2018-05-13T15:53:12.496Z,17.67
2018-05-13T15:55:40.002Z,18.13
2018-05-13T15:58:07.544Z,20.50
2018-05-13T16:00:35.089Z,21.50
2018-05-13T16:03:02.686Z,18.43
2018-05-13T16:05:30.226Z,18.70
2018-05-13T16:07:57.780Z,18.97
2018-05-13T16:10:25.318Z,18.00
2018-05-13T16:12:52.830Z,17.80
2018-05-13T16:15:20.372Z,20.40
2018-05-13T16:17:47.881Z,21.20
2018-05-13T16:20:15.402Z,18.90
2018-05-13T16:22:57.010Z,19.50
2018-05-13T16:25:24.560Z,20.20
2018-05-13T16:28:05.309Z,18.90
2018-05-13T16:30:32.895Z,20.40
2018-05-13T16:33:00.474Z,18.93
2018-05-13T16:35:34.017Z,20.23
2018-05-13T16:38:01.586Z,17.90
2018-05-13T16:40:29.129Z,17.70
2018-05-13T16:42:56.646Z,17.93
2018-05-13T16:45:28.096Z,15.53
2018-05-13T16:47:56.490Z,15.90
2018-05-13T16:50:24.019Z,17.90
2018-05-13T16:52:52.322Z,17.47
2018-05-13T16:55:19.869Z,17.17
2018-05-13T16:57:47.455Z,16.60
2018-05-13T17:00:15.033Z,17.17
2018-05-13T17:02:42.537Z,15.80
2018-05-13T17:05:10.833Z,16.40
2018-05-13T17:07:38.346Z,16.00
2018-05-13T17:10:05.925Z,18.50
2018-05-13T17:12:33.500Z,21.93
2018-05-13T17:15:01.052Z,17.83
2018-05-13T17:17:29.384Z,18.43
2018-05-13T17:19:56.919Z,18.50
2018-05-13T17:22:24.453Z,18.67
2018-05-13T17:24:52.743Z,17.63
2018-05-13T17:27:20.304Z,18.97
2018-05-13T17:29:47.862Z,18.57
2018-05-13T17:32:15.404Z,17.40
2018-05-13T17:34:43.698Z,18.43
2018-05-13T17:37:11.265Z,15.80
2018-05-13T17:39:39.591Z,17.67
2018-05-13T17:42:07.139Z,18.93
2018-05-13T17:44:49.386Z,17.30
2018-05-13T17:47:16.975Z,18.90
2018-05-13T17:49:44.618Z,18.00
2018-05-13T17:52:12.082Z,18.70
2018-05-13T17:54:40.614Z,19.83
2018-05-13T17:57:08.126Z,18.17
2018-05-13T18:02:30.835Z,18.87
2018-05-13T18:04:58.406Z,18.80
2018-05-13T18:07:25.976Z,17.83
2018-05-13T18:09:53.528Z,18.60
2018-05-13T18:12:21.090Z,18.10
2018-05-13T18:14:48.615Z,19.27
2018-05-13T18:17:16.225Z,20.33
2018-05-13T18:19:43.731Z,18.13
2018-05-13T18:22:11.305Z,18.87
2018-05-13T18:24:47.143Z,19.67
2018-05-13T18:27:40.441Z,17.80
2018-05-13T18:30:08.780Z,20.70
2018-05-13T18:32:36.435Z,18.70
2018-05-13T18:35:25.738Z,18.63
2018-05-13T18:37:53.302Z,21.50
2018-05-13T18:42:54.924Z,24.00
2018-05-13T18:45:23.497Z,22.23
2018-05-13T18:47:51.112Z,63.20
2018-05-13T18:50:21.747Z,52.17
2018-05-13T18:52:49.227Z,45.23
2018-05-13T18:55:17.531Z,39.00
2018-05-13T18:57:45.034Z,39.93
2018-05-13T19:00:17.130Z,35.90
2018-05-13T19:02:45.506Z,37.60
2018-05-13T19:05:13.788Z,35.00
2018-05-13T19:07:41.319Z,43.77
2018-05-13T19:10:08.900Z,43.37
2018-05-13T19:12:37.191Z,40.70
2018-05-13T19:15:04.770Z,43.20
2018-05-13T19:17:32.327Z,54.00
2018-05-13T19:19:59.886Z,47.00
2018-05-13T19:22:27.461Z,41.73
2018-05-13T19:24:55.071Z,49.63
2018-05-13T19:27:31.640Z,54.60
2018-05-13T19:29:59.967Z,52.97
2018-05-13T19:32:27.487Z,44.57
2018-05-13T19:35:06.316Z,48.17
2018-05-13T19:37:33.863Z,62.33
2018-05-13T19:40:02.160Z,51.60
2018-05-13T19:42:29.728Z,72.80
2018-05-13T19:45:08.199Z,52.97
2018-05-13T19:47:35.757Z,48.50
2018-05-13T19:50:03.439Z,50.17
2018-05-13T19:52:30.948Z,39.97
2018-05-13T19:54:58.471Z,53.13
2018-05-13T19:57:26.069Z,77.50
2018-05-13T19:59:53.593Z,68.00
2018-05-13T20:02:21.137Z,47.20
2018-05-13T20:04:48.730Z,58.30
2018-05-13T20:07:16.271Z,75.00
2018-05-13T20:09:43.905Z,46.37
2018-05-13T20:12:11.319Z,59.40
2018-05-13T20:14:38.846Z,32.77
2018-05-13T20:17:06.397Z,37.97
2018-05-13T20:19:33.942Z,34.57
2018-05-13T20:22:02.277Z,40.30
2018-05-13T20:24:29.838Z,29.37
2018-05-13T20:26:57.410Z,33.83
2018-05-13T20:29:24.944Z,26.50
2018-05-13T20:31:52.527Z,33.33
2018-05-13T20:34:20.115Z,33.47
2018-05-13T20:36:48.388Z,25.73
2018-05-13T20:39:16.721Z,19.20
2018-05-13T20:41:44.264Z,19.87
2018-05-13T20:44:11.927Z,28.77
2018-05-13T20:46:39.394Z,17.23
2018-05-13T20:49:06.915Z,15.83
2018-05-13T20:51:34.662Z,14.17
2018-05-13T20:54:02.951Z,14.40
2018-05-13T20:56:31.327Z,14.43
2018-05-13T20:58:58.864Z,15.03
2018-05-13T21:01:26.360Z,17.00
2018-05-13T21:03:53.925Z,25.10
2018-05-13T21:06:21.435Z,24.10
2018-05-13T21:08:48.975Z,21.40
2018-05-13T21:11:16.543Z,25.47
2018-05-13T21:13:44.137Z,28.60
2018-05-13T21:16:12.474Z,50.47
2018-05-13T21:18:39.957Z,35.23
2018-05-13T21:21:07.530Z,35.20
2018-05-13T21:23:35.061Z,32.43
2018-05-13T21:26:02.544Z,49.20
2018-05-13T21:28:30.881Z,40.53
2018-05-13T21:30:58.468Z,70.63
2018-05-13T21:33:25.971Z,61.70
2018-05-13T21:35:53.517Z,68.87
2018-05-13T21:38:21.041Z,57.23
2018-05-13T21:40:48.568Z,50.60
2018-05-13T21:43:16.147Z,55.37
2018-05-13T21:45:43.654Z,61.50
2018-05-13T21:48:11.222Z,56.67
2018-05-13T21:50:39.572Z,53.60
2018-05-13T21:53:07.089Z,53.90
2018-05-13T21:55:34.610Z,69.23
2018-05-13T21:58:02.132Z,58.03
2018-05-13T22:00:29.702Z,59.17
2018-05-13T22:02:57.234Z,50.60
2018-05-13T22:05:24.761Z,47.20
2018-05-13T22:07:52.292Z,52.83
2018-05-13T22:10:20.590Z,50.60
2018-05-13T22:12:48.133Z,46.17
2018-05-13T22:15:15.706Z,48.40
2018-05-13T22:17:43.231Z,44.33
2018-05-13T22:20:11.535Z,50.67
2018-05-13T22:22:39.053Z,44.10
2018-05-13T22:25:06.595Z,47.80
2018-05-13T22:27:34.131Z,37.83
2018-05-13T22:30:01.655Z,47.17
2018-05-13T22:32:29.174Z,51.90
2018-05-13T22:34:56.715Z,56.77
2018-05-13T22:37:25.044Z,50.00
2018-05-13T22:39:53.317Z,52.80
2018-05-13T22:42:20.848Z,53.27
2018-05-13T22:44:48.625Z,53.10
2018-05-13T22:47:16.203Z,52.00
2018-05-13T22:49:43.792Z,60.80
2018-05-13T22:52:11.292Z,29.23
2018-05-13T22:54:38.844Z,23.87
2018-05-13T22:57:06.399Z,32.87
2018-05-13T22:59:33.969Z,24.17
2018-05-13T23:02:01.507Z,26.83
2018-05-13T23:04:29.106Z,29.67
2018-05-13T23:06:56.649Z,30.83
2018-05-13T23:09:24.172Z,35.90
2018-05-13T23:11:51.735Z,30.37
2018-05-13T23:14:19.290Z,31.50
2018-05-13T23:16:46.811Z,31.63
2018-05-13T23:19:14.324Z,32.30
2018-05-13T23:21:41.906Z,30.53
2018-05-13T23:24:09.461Z,30.63
2018-05-13T23:26:36.974Z,33.80
2018-05-13T23:29:04.539Z,27.87
2018-05-13T23:31:32.866Z,27.20
2018-05-13T23:34:00.426Z,30.40
2018-05-13T23:36:28.685Z,30.93
2018-05-13T23:38:56.205Z,26.67
2018-05-13T23:41:23.757Z,31.10
2018-05-13T23:43:52.000Z,31.10
2018-05-13T23:46:20.297Z,27.33
2018-05-13T23:48:47.809Z,24.13
2018-05-13T23:51:15.318Z,32.83
2018-05-13T23:53:42.883Z,26.73
2018-05-13T23:56:10.421Z,30.60
2018-05-13T23:58:38.695Z,28.37
